Time;durP1;ratioP1;P1;durP2;ratioP2;P2;SDS_P1;SDS_P2;PMS_P1;PMS_P2;Temp;Humidity;BMP_temperature;BMP_pressure;BME280_temperature;BME280_humidity;BME280_pressure;Samples;Min_cycle;Max_cycle;Signal;HPM_P1;HPM_P2
2024/02/27 00:00:52;;;;;;;48.00;24.50;;;;;;;-6.72;100.00;140647.11;106776;1265;25413;-68
2024/02/27 00:03:38;;;;;;;46.60;24.60;;;;;;;-6.74;100.00;140642.66;106863;1265;25373;-67
2024/02/27 00:06:24;;;;;;;50.40;24.80;;;;;;;-6.76;100.00;140637.98;106855;1265;25483;-66
2024/02/27 00:09:14;;;;;;;57.50;26.80;;;;;;;-6.79;100.00;140631.53;106827;1263;24346;-69
2024/02/27 00:12:00;;;;;;;47.50;25.30;;;;;;;-6.83;100.00;140621.94;106810;1257;25342;-67
2024/02/27 00:14:46;;;;;;;50.80;26.00;;;;;;;-6.85;100.00;140616.47;106789;1265;25497;-66
2024/02/27 00:17:32;;;;;;;51.50;25.90;;;;;;;-6.88;100.00;140610.08;106781;1267;22654;-69
2024/02/27 00:20:17;;;;;;;52.30;27.80;;;;;;;-6.89;100.00;140606.11;106888;1266;25342;-69
2024/02/27 00:23:03;;;;;;;56.70;26.00;;;;;;;-6.90;100.00;140605.38;106782;1267;25402;-66
2024/02/27 00:25:49;;;;;;;55.10;25.20;;;;;;;-6.89;100.00;140607.61;106817;1253;25517;-66
2024/02/27 00:28:34;;;;;;;46.40;23.90;;;;;;;-6.88;100.00;140609.83;106792;1266;25356;-66
2024/02/27 00:31:20;;;;;;;57.00;27.50;;;;;;;-6.90;100.00;140605.13;106832;1274;25344;-69
2024/02/27 00:34:05;;;;;;;46.30;25.50;;;;;;;-6.91;100.00;140601.92;106861;1267;25529;-68
2024/02/27 00:36:51;;;;;;;48.10;26.50;;;;;;;-6.94;100.00;140595.48;106826;1267;25389;-65
2024/02/27 00:39:36;;;;;;;51.50;25.60;;;;;;;-6.95;100.00;140591.80;106795;1264;25511;-65
2024/02/27 00:42:22;;;;;;;60.40;27.30;;;;;;;-6.96;100.00;140589.80;106748;1267;25344;-66
2024/02/27 00:45:07;;;;;;;54.30;28.10;;;;;;;-6.99;100.00;140583.41;106829;1266;25396;-66
2024/02/27 00:47:53;;;;;;;49.00;24.90;;;;;;;-7.00;100.00;140581.16;106873;1267;22532;-68
2024/02/27 00:50:39;;;;;;;51.70;24.70;;;;;;;-7.01;100.00;140577.97;106851;1258;25382;-68
2024/02/27 00:53:24;;;;;;;52.20;26.60;;;;;;;-7.01;100.00;140577.47;106857;1267;25379;-66
2024/02/27 00:56:10;;;;;;;53.70;25.20;;;;;;;-7.02;100.00;140575.48;106859;1258;23185;-68
2024/02/27 00:58:56;;;;;;;53.60;26.90;;;;;;;-7.06;100.00;140565.59;106845;1258;25369;-66
2024/02/27 01:01:41;;;;;;;57.70;26.70;;;;;;;-7.09;100.00;140557.45;106871;1263;25294;-67
2024/02/27 01:04:26;;;;;;;55.30;24.30;;;;;;;-7.13;100.00;140547.83;106755;1253;25345;-65
2024/02/27 01:07:12;;;;;;;59.50;25.20;;;;;;;-7.15;100.00;140543.39;106719;1267;25370;-68
2024/02/27 01:09:58;;;;;;;58.60;26.10;;;;;;;-7.17;100.00;140538.45;106816;1253;25341;-66
2024/02/27 01:12:45;;;;;;;54.00;26.50;;;;;;;-7.22;100.00;140528.56;106708;1259;24392;-69
2024/02/27 01:15:31;;;;;;;55.60;24.80;;;;;;;-7.25;100.00;140520.91;106832;1267;25430;-67
2024/02/27 01:18:17;;;;;;;46.40;23.00;;;;;;;-7.27;100.00;140515.23;106899;1266;25370;-68
2024/02/27 01:21:05;;;;;;;58.70;26.20;;;;;;;-7.28;100.00;140513.48;106807;1254;25838;-70
2024/02/27 01:23:50;;;;;;;48.70;25.30;;;;;;;-7.29;100.00;140511.78;106799;1268;25338;-67
2024/02/27 01:26:36;;;;;;;43.00;23.90;;;;;;;-7.32;100.00;140503.89;106803;1273;25366;-67
2024/02/27 01:29:23;;;;;;;51.50;24.40;;;;;;;-7.35;100.00;140496.72;106820;1257;25366;-67
2024/02/27 01:32:09;;;;;;;46.40;23.30;;;;;;;-7.36;100.00;140494.25;106795;1266;25491;-64
2024/02/27 01:34:55;;;;;;;50.10;24.50;;;;;;;-7.38;100.00;140487.83;106805;1266;25526;-68
2024/02/27 01:37:41;;;;;;;46.60;24.90;;;;;;;-7.40;100.00;140483.38;106820;1268;25416;-66
2024/02/27 01:40:26;;;;;;;49.90;25.10;;;;;;;-7.42;100.00;140479.20;106840;1257;22894;-66
2024/02/27 01:43:25;;;;;;;53.80;25.30;;;;;;;-7.43;100.00;140477.20;106846;1257;25395;-66
2024/02/27 01:46:19;;;;;;;42.80;21.90;;;;;;;-7.44;100.00;140473.78;106811;1272;25403;-65
2024/02/27 01:49:05;;;;;;;41.70;22.20;;;;;;;-7.44;100.00;140473.75;106728;1267;25537;-67
2024/02/27 01:51:51;;;;;;;51.50;25.20;;;;;;;-7.45;100.00;140472.53;106864;1266;25366;-67
2024/02/27 01:54:37;;;;;;;47.40;22.60;;;;;;;-7.44;100.00;140473.28;106908;1265;25378;-66
2024/02/27 01:57:23;;;;;;;43.70;23.60;;;;;;;-7.45;100.00;140472.28;106858;1267;25363;-66
2024/02/27 02:00:09;;;;;;;45.40;22.70;;;;;;;-7.47;100.00;140467.83;106834;1266;25369;-66
2024/02/27 02:03:01;;;;;;;45.70;22.80;;;;;;;-7.47;100.00;140465.84;106693;1268;25417;-67
2024/02/27 02:05:48;;;;;;;47.50;24.30;;;;;;;-7.49;100.00;140461.66;106733;1275;25341;-67
2024/02/27 02:08:34;;;;;;;48.60;23.60;;;;;;;-7.51;100.00;140456.22;106733;1266;25363;-66
2024/02/27 02:11:21;;;;;;;50.60;21.20;;;;;;;-7.51;100.00;140455.97;106714;1269;25370;-67
2024/02/27 02:14:07;;;;;;;45.20;22.60;;;;;;;-7.53;100.00;140453.28;106760;1269;25436;-66
2024/02/27 02:16:52;;;;;;;46.80;22.40;;;;;;;-7.53;100.00;140453.53;106738;1274;25485;-69
2024/02/27 02:19:38;;;;;;;45.20;22.90;;;;;;;-7.53;100.00;140452.02;106723;1267;25494;-65
2024/02/27 02:22:23;;;;;;;38.40;21.90;;;;;;;-7.54;100.00;140448.83;106754;1266;25341;-68
2024/02/27 02:25:11;;;;;;;47.40;21.80;;;;;;;-7.57;100.00;140442.16;106727;1268;25331;-68
2024/02/27 02:27:57;;;;;;;45.60;25.10;;;;;;;-7.57;100.00;140440.92;106653;1266;25363;-65
2024/02/27 02:30:43;;;;;;;49.40;24.10;;;;;;;-7.58;100.00;140439.94;106674;1267;25341;-68
2024/02/27 02:33:29;;;;;;;45.30;22.60;;;;;;;-7.60;100.00;140435.50;106546;1267;25437;-68
2024/02/27 02:36:15;;;;;;;39.70;21.30;;;;;;;-7.62;100.00;140430.58;106528;1265;25341;-68
2024/02/27 02:39:01;;;;;;;41.30;19.70;;;;;;;-7.60;100.00;140434.53;106626;1265;25342;-68
2024/02/27 02:41:47;;;;;;;38.50;20.90;;;;;;;-7.60;100.00;140436.23;106658;1267;25538;-65
2024/02/27 02:44:33;;;;;;;41.80;21.80;;;;;;;-7.61;100.00;140432.03;106664;1268;26637;-68
2024/02/27 02:47:18;;;;;;;36.50;19.10;;;;;;;-7.63;100.00;140428.09;106752;1266;25366;-64
2024/02/27 02:50:05;;;;;;;43.30;21.10;;;;;;;-7.65;100.00;140422.91;106824;1269;25369;-67
2024/02/27 02:52:51;;;;;;;41.20;22.10;;;;;;;-7.66;100.00;140422.42;106842;1268;25412;-68
2024/02/27 02:55:42;;;;;;;40.40;21.70;;;;;;;-7.64;100.00;140425.39;106821;1269;25507;-64
2024/02/27 02:58:28;;;;;;;48.40;23.10;;;;;;;-7.65;100.00;140422.91;106865;1268;25341;-66
2024/02/27 03:01:13;;;;;;;45.40;21.10;;;;;;;-7.67;100.00;140420.20;106797;1257;25334;-68
2024/02/27 03:03:59;;;;;;;50.60;23.90;;;;;;;-7.68;100.00;140416.50;106831;1268;25342;-66
2024/02/27 03:06:44;;;;;;;37.60;20.00;;;;;;;-7.69;100.00;140413.78;106896;1259;25362;-69
2024/02/27 03:09:33;;;;;;;36.60;19.00;;;;;;;-7.69;100.00;140413.28;106864;1266;25369;-68
2024/02/27 03:12:19;;;;;;;47.40;24.90;;;;;;;-7.69;100.00;140413.03;106793;1266;25447;-65
2024/02/27 03:15:06;;;;;;;51.20;23.70;;;;;;;-7.71;100.00;140408.34;106803;1269;25360;-67
2024/02/27 03:17:51;;;;;;;50.70;22.20;;;;;;;-7.73;100.00;140403.91;106770;1266;25341;-64
2024/02/27 03:20:37;;;;;;;47.10;22.60;;;;;;;-7.77;100.00;140395.53;106749;1269;25495;-65
2024/02/27 03:23:22;;;;;;;41.40;21.80;;;;;;;-7.80;100.00;140387.13;106752;1263;25341;-68
2024/02/27 03:26:08;;;;;;;42.80;22.80;;;;;;;-7.83;100.00;140381.22;106834;1266;25389;-65
2024/02/27 03:28:53;;;;;;;49.50;24.10;;;;;;;-7.82;100.00;140382.45;106819;1257;24227;-67
2024/02/27 03:31:39;;;;;;;62.30;26.50;;;;;;;-7.82;100.00;140382.22;106888;1262;25523;-66
2024/02/27 03:34:26;;;;;;;44.60;21.90;;;;;;;-7.85;100.00;140376.27;106781;1267;25365;-68
2024/02/27 03:37:12;;;;;;;46.00;23.00;;;;;;;-7.87;100.00;140370.59;106889;1268;25363;-66
2024/02/27 03:39:57;;;;;;;43.40;21.90;;;;;;;-7.89;100.00;140364.91;106890;1264;25332;-66
2024/02/27 03:42:43;;;;;;;45.50;23.90;;;;;;;-7.91;100.00;140361.47;106897;1263;24196;-67
2024/02/27 03:45:29;;;;;;;52.90;24.80;;;;;;;-7.94;100.00;140352.33;106857;1268;25331;-66
2024/02/27 03:48:14;;;;;;;48.30;22.20;;;;;;;-7.99;100.00;140340.22;106797;1266;25421;-64
2024/02/27 03:51:01;;;;;;;38.20;20.60;;;;;;;-8.03;100.00;140331.61;106819;1277;25359;-64
2024/02/27 03:53:46;;;;;;;40.10;20.40;;;;;;;-8.06;100.00;140325.19;106903;1256;25354;-65
2024/02/27 03:56:32;;;;;;;51.80;20.20;;;;;;;-8.08;100.00;140321.00;106896;1269;25370;-65
2024/02/27 03:59:18;;;;;;;44.00;21.40;;;;;;;-8.08;100.00;140319.75;106809;1266;25341;-63
2024/02/27 04:02:03;;;;;;;47.40;21.50;;;;;;;-8.13;100.00;140308.42;106831;1267;24225;-68
2024/02/27 04:04:49;;;;;;;46.70;22.20;;;;;;;-8.18;100.00;140297.06;106789;1265;25946;-65
2024/02/27 04:07:35;;;;;;;44.30;20.80;;;;;;;-8.19;100.00;140294.38;106817;1266;25494;-67
2024/02/27 04:10:20;;;;;;;37.10;20.70;;;;;;;-8.18;100.00;140294.84;106836;1269;25545;-65
2024/02/27 04:13:06;;;;;;;38.20;20.10;;;;;;;-8.18;100.00;140296.58;106797;1268;25360;-66
2024/02/27 04:15:52;;;;;;;40.80;21.70;;;;;;;-8.16;100.00;140300.28;106796;1275;25369;-66
2024/02/27 04:18:37;;;;;;;46.70;19.20;;;;;;;-8.19;100.00;140292.38;106897;1269;25421;-66
2024/02/27 04:21:23;;;;;;;36.00;20.40;;;;;;;-8.21;100.00;140288.69;106824;1266;24384;-67
2024/02/27 04:24:09;;;;;;;36.80;19.60;;;;;;;-8.22;100.00;140286.95;106822;1266;25386;-68
2024/02/27 04:26:55;;;;;;;36.40;18.80;;;;;;;-8.22;100.00;140285.72;106874;1269;25388;-68
2024/02/27 04:29:41;;;;;;;41.80;20.50;;;;;;;-8.26;100.00;140275.36;106844;1259;25324;-65
2024/02/27 04:32:27;;;;;;;38.20;19.70;;;;;;;-8.28;100.00;140271.17;106848;1259;25363;-64
2024/02/27 04:35:14;;;;;;;37.30;19.00;;;;;;;-8.30;100.00;140266.98;106870;1265;25369;-65
2024/02/27 04:37:59;;;;;;;38.10;20.80;;;;;;;-8.31;100.00;140263.78;106690;1269;25456;-67
2024/02/27 04:40:45;;;;;;;43.40;21.00;;;;;;;-8.33;100.00;140259.83;106839;1266;25515;-64
2024/02/27 04:43:31;;;;;;;38.00;20.20;;;;;;;-8.35;100.00;140253.89;106834;1259;25532;-66
2024/02/27 04:46:16;;;;;;;37.40;19.00;;;;;;;-8.36;100.00;140253.16;106815;1263;25363;-69
2024/02/27 04:49:01;;;;;;;47.30;20.90;;;;;;;-8.40;100.00;140243.58;106788;1275;25345;-65
2024/02/27 04:51:47;;;;;;;40.10;20.30;;;;;;;-8.42;100.00;140236.67;106973;1266;25455;-63
2024/02/27 04:54:35;;;;;;;37.10;20.20;;;;;;;-8.45;100.00;140231.02;106737;1267;25407;-66
2024/02/27 04:57:21;;;;;;;44.60;20.10;;;;;;;-8.44;100.00;140231.77;106865;1269;25342;-64
2024/02/27 05:00:08;;;;;;;52.20;21.70;;;;;;;-8.43;100.00;140235.20;106801;1259;25514;-65
2024/02/27 05:02:54;;;;;;;43.10;21.00;;;;;;;-8.39;100.00;140243.81;106808;1258;22633;-70
2024/02/27 05:05:40;;;;;;;43.30;19.20;;;;;;;-8.36;100.00;140253.16;106791;1269;25494;-65
2024/02/27 05:08:25;;;;;;;43.50;20.20;;;;;;;-8.30;100.00;140266.47;106819;1257;25332;-67
2024/02/27 05:11:11;;;;;;;34.10;18.60;;;;;;;-8.25;100.00;140279.08;106898;1253;25322;-66
2024/02/27 05:13:57;;;;;;;39.00;20.50;;;;;;;-8.21;100.00;140288.91;106844;1268;25419;-66
2024/02/27 05:16:42;;;;;;;52.90;20.40;;;;;;;-8.16;100.00;140301.03;106974;1269;25334;-64
2024/02/27 05:19:27;;;;;;;39.40;18.80;;;;;;;-8.12;100.00;140311.39;106802;1269;25345;-66
2024/02/27 05:22:13;;;;;;;38.60;18.20;;;;;;;-8.05;100.00;140326.66;106829;1259;25372;-67
2024/02/27 05:24:59;;;;;;;36.30;18.40;;;;;;;-7.97;100.00;140345.67;106863;1276;25440;-66
2024/02/27 05:27:45;;;;;;;44.50;19.60;;;;;;;-7.92;100.00;140359.73;106851;1266;25369;-66
2024/02/27 05:30:31;;;;;;;37.60;17.50;;;;;;;-7.86;100.00;140373.06;106752;1268;25356;-68
2024/02/27 05:33:17;;;;;;;40.70;20.00;;;;;;;-7.77;100.00;140396.00;106754;1268;25408;-70
2024/02/27 05:36:03;;;;;;;38.10;19.80;;;;;;;-7.60;100.00;140434.52;106768;1263;25369;-66
2024/02/27 05:38:50;;;;;;;46.90;22.60;;;;;;;-7.42;100.00;140478.20;106802;1263;22527;-68
2024/02/27 05:41:35;;;;;;;49.00;24.10;;;;;;;-7.20;100.00;140533.27;106793;1254;25378;-66
2024/02/27 05:44:22;;;;;;;51.80;22.70;;;;;;;-7.01;100.00;140577.47;106882;1258;25564;-66
2024/02/27 05:47:08;;;;;;;42.90;20.00;;;;;;;-6.89;100.00;140607.84;106828;1253;25462;-67
2024/02/27 05:49:53;;;;;;;41.00;21.00;;;;;;;-6.81;100.00;140626.63;106672;1267;25325;-68
2024/02/27 05:52:40;;;;;;;37.00;19.50;;;;;;;-6.72;100.00;140647.61;106866;1253;24269;-68
2024/02/27 05:55:25;;;;;;;34.90;20.10;;;;;;;-6.56;100.00;140687.38;106745;1263;25795;-70
2024/02/27 05:58:11;;;;;;;40.50;19.20;;;;;;;-6.41;100.00;140722.95;106756;1269;25411;-66
2024/02/27 06:00:57;;;;;;;40.50;20.90;;;;;;;-6.32;100.00;140745.22;106903;1269;25405;-66
2024/02/27 06:03:43;;;;;;;42.80;21.00;;;;;;;-5.91;100.00;140842.58;106803;1270;25405;-65
2024/02/27 06:06:29;;;;;;;36.40;18.50;;;;;;;-5.50;100.00;140943.19;106634;1269;25342;-66
2024/02/27 06:09:15;;;;;;;42.10;21.20;;;;;;;-5.30;100.00;140990.92;106674;1259;25345;-66
2024/02/27 06:12:01;;;;;;;44.40;19.70;;;;;;;-5.15;98.41;141026.55;106774;1259;24675;-66
2024/02/27 06:14:47;;;;;;;33.80;19.20;;;;;;;-4.80;96.48;141111.42;106912;1269;25422;-66
2024/02/27 06:17:33;;;;;;;39.90;20.10;;;;;;;-4.39;92.40;141210.44;106940;1257;25398;-68
2024/02/27 06:23:27;;;;;;;32.90;17.30;;;;;;;-4.13;86.82;141274.31;106859;1266;22531;-68
2024/02/27 06:26:15;;;;;;;30.70;17.20;;;;;;;-4.21;85.97;141254.03;106816;1259;25341;-67
2024/02/27 06:29:00;;;;;;;32.10;17.30;;;;;;;-4.02;84.41;141299.08;106812;1269;25456;-69
2024/02/27 06:31:46;;;;;;;38.20;18.10;;;;;;;-3.83;82.27;141347.66;106785;1268;25406;-67
2024/02/27 06:34:32;;;;;;;31.90;17.00;;;;;;;-3.63;80.05;141395.45;106833;1269;25359;-68
2024/02/27 06:37:18;;;;;;;35.80;17.30;;;;;;;-3.49;79.06;141429.16;106879;1272;25501;-65
2024/02/27 06:40:05;;;;;;;34.60;17.80;;;;;;;-3.31;77.84;141472.25;106830;1269;25468;-69
2024/02/27 06:42:51;;;;;;;36.40;18.00;;;;;;;-2.94;76.08;141562.73;106860;1266;23113;-66
2024/02/27 06:45:37;;;;;;;31.20;17.10;;;;;;;-2.40;72.64;141693.42;106894;1266;25369;-66
2024/02/27 06:48:22;;;;;;;33.00;16.90;;;;;;;-2.11;70.08;141763.89;106837;1269;25369;-69
2024/02/27 06:51:09;;;;;;;30.00;17.40;;;;;;;-1.96;68.93;141798.39;106892;1269;25369;-66
2024/02/27 06:53:54;;;;;;;36.00;17.70;;;;;;;-1.79;67.32;141839.83;106920;1265;25318;-67
2024/02/27 06:56:40;;;;;;;31.80;16.00;;;;;;;-1.59;66.46;141889.94;106877;1268;25567;-68
2024/02/27 06:59:26;;;;;;;31.70;17.50;;;;;;;-1.28;65.32;141963.19;106820;1269;25491;-67
2024/02/27 07:02:12;;;;;;;35.00;17.40;;;;;;;-1.17;64.16;141992.48;106855;1268;25418;-69
2024/02/27 07:04:57;;;;;;;33.60;17.20;;;;;;;-1.24;64.27;141972.86;106808;1274;25464;-66
2024/02/27 07:07:43;;;;;;;34.20;16.10;;;;;;;-0.90;63.38;142057.08;106895;1258;22782;-67
2024/02/27 07:10:28;;;;;;;26.50;15.80;;;;;;;-0.63;61.80;142122.41;106956;1266;23551;-68
2024/02/27 07:13:15;;;;;;;37.90;17.10;;;;;;;-0.53;60.52;142146.00;106865;1275;25345;-65
2024/02/27 07:16:02;;;;;;;35.40;17.50;;;;;;;-0.74;61.11;142096.83;106890;1259;25369;-68
2024/02/27 07:18:48;;;;;;;29.30;16.10;;;;;;;-0.27;60.75;142208.86;106777;1277;26508;-69
2024/02/27 07:21:34;;;;;;;28.80;15.60;;;;;;;0.24;58.61;142333.41;106785;1259;23201;-69
2024/02/27 07:24:21;;;;;;;35.60;16.40;;;;;;;0.57;57.73;142413.48;107878;1262;25342;-67
2024/02/27 07:27:07;;;;;;;27.90;14.80;;;;;;;0.65;55.70;142432.64;107074;1262;25338;-67
2024/02/27 07:29:54;;;;;;;30.90;17.20;;;;;;;-0.01;57.00;142271.27;107080;1259;25425;-72
2024/02/27 07:32:40;;;;;;;31.20;15.70;;;;;;;-0.45;58.52;142164.38;107018;1266;25343;-69
2024/02/27 07:35:26;;;;;;;32.00;16.50;;;;;;;-0.72;59.67;142100.78;107250;1262;25491;-66
2024/02/27 07:38:12;;;;;;;36.00;15.70;;;;;;;-0.80;60.14;142081.91;106963;1259;25510;-65
2024/02/27 07:40:58;;;;;;;28.80;15.00;;;;;;;-0.84;60.46;142070.47;107044;1260;22529;-66
2024/02/27 07:43:45;;;;;;;26.30;14.60;;;;;;;-0.76;60.22;142091.09;107112;1263;25334;-69
2024/02/27 07:46:32;;;;;;;31.80;16.70;;;;;;;-0.58;59.91;142135.08;107372;1266;25409;-67
2024/02/27 07:49:26;;;;;;;33.30;16.80;;;;;;;-0.38;58.72;142181.78;107274;1263;24441;-65
2024/02/27 07:52:13;;;;;;;31.70;15.90;;;;;;;-0.49;59.33;142156.19;107446;1266;25345;-71
2024/02/27 07:55:00;;;;;;;30.40;16.80;;;;;;;-0.15;58.72;142237.97;107283;1266;22522;-68
2024/02/27 07:57:46;;;;;;;33.20;16.60;;;;;;;0.34;57.48;142358.75;107829;1259;24372;-73
2024/02/27 08:00:32;;;;;;;35.50;17.00;;;;;;;0.48;56.72;142391.34;107756;1260;22644;-72
2024/02/27 08:03:18;;;;;;;29.20;16.10;;;;;;;0.50;56.37;142395.59;107460;1259;25363;-71
2024/02/27 08:06:07;;;;;;;31.10;15.60;;;;;;;0.61;55.77;142423.45;107442;1260;22837;-68
2024/02/27 08:08:57;;;;;;;38.30;17.10;;;;;;;0.06;56.89;142290.41;108254;1259;24088;-74
2024/02/27 08:11:42;;;;;;;36.20;16.30;;;;;;;-0.47;58.66;142161.41;107734;1265;25334;-72
2024/02/27 08:14:32;;;;;;;35.30;16.00;;;;;;;-1.05;60.35;142020.31;107182;1257;22549;-69
2024/02/27 08:17:18;;;;;;;34.10;16.20;;;;;;;-1.68;62.76;141867.13;106979;1259;25551;-68
2024/02/27 08:20:05;;;;;;;31.50;16.30;;;;;;;-1.83;63.73;141830.63;107164;1259;25369;-70
2024/02/27 08:22:51;;;;;;;30.10;15.30;;;;;;;-1.66;63.63;141873.08;107159;1259;22635;-72
2024/02/27 08:25:38;;;;;;;30.00;14.00;;;;;;;-1.53;62.85;141903.61;107221;1270;25331;-69
2024/02/27 08:28:24;;;;;;;30.70;14.30;;;;;;;-1.75;63.16;141849.97;107111;1263;26493;-73
2024/02/27 08:31:10;;;;;;;27.90;15.10;;;;;;;-1.79;63.80;141841.05;107041;1263;25405;-71
2024/02/27 08:33:56;;;;;;;33.80;15.90;;;;;;;-1.58;63.90;141892.20;107088;1266;25351;-70
2024/02/27 08:36:42;;;;;;;34.90;16.20;;;;;;;-1.46;63.44;141920.22;107049;1263;25412;-71
2024/02/27 08:39:29;;;;;;;29.00;16.10;;;;;;;-1.30;62.84;141960.72;107067;1260;25331;-70
2024/02/27 08:42:15;;;;;;;29.70;14.70;;;;;;;-1.21;62.08;141980.31;107096;1265;25421;-69
2024/02/27 08:45:00;;;;;;;31.00;15.00;;;;;;;-1.13;61.98;142001.67;107097;1264;25363;-72
2024/02/27 08:47:47;;;;;;;32.60;16.50;;;;;;;-0.96;62.01;142042.91;107212;1259;25350;-69
2024/02/27 08:50:33;;;;;;;30.70;15.20;;;;;;;-1.09;62.23;142010.86;107365;1260;23773;-69
2024/02/27 08:53:18;;;;;;;29.70;14.60;;;;;;;-1.13;62.35;142002.42;107066;1260;25336;-71
2024/02/27 08:56:06;;;;;;;31.70;16.20;;;;;;;-1.21;62.85;141982.05;107611;1259;24358;-74
2024/02/27 08:58:52;;;;;;;35.90;16.70;;;;;;;-1.20;63.21;141984.53;107062;1264;22541;-72
2024/02/27 09:01:38;;;;;;;34.90;17.80;;;;;;;-0.93;62.73;142050.59;106937;1263;25334;-71
2024/02/27 09:04:24;;;;;;;32.50;15.90;;;;;;;-0.92;62.21;142050.34;107083;1263;22568;-71
2024/02/27 09:07:12;;;;;;;23.20;14.00;;;;;;;-0.98;62.21;142037.92;107426;1270;24250;-71
2024/02/27 09:09:59;;;;;;;22.90;12.80;;;;;;;-0.86;62.10;142066.75;107165;1270;23297;-72
2024/02/27 09:12:44;;;;;;;27.30;12.90;;;;;;;-0.85;61.56;142069.23;107262;1277;25355;-80
2024/02/27 09:15:30;;;;;;;28.20;12.30;;;;;;;-0.91;62.04;142053.84;107457;1259;22566;-72
2024/02/27 09:18:16;;;;;;;32.00;15.00;;;;;;;-1.12;62.27;142003.16;107030;1266;25369;-71
2024/02/27 09:21:02;;;;;;;34.90;14.10;;;;;;;-1.51;63.73;141909.31;107049;1267;23209;-70
2024/02/27 09:23:50;;;;;;;23.40;13.00;;;;;;;-1.75;64.32;141850.73;106968;1269;25401;-69
2024/02/27 09:26:36;;;;;;;44.40;14.80;;;;;;;-2.04;65.58;141780.28;107228;1260;22937;-68
2024/02/27 09:29:22;;;;;;;28.90;15.20;;;;;;;-2.27;67.43;141725.17;107026;1277;25361;-70
2024/02/27 09:32:07;;;;;;;28.90;15.40;;;;;;;-2.45;69.15;141682.03;107114;1260;25352;-70
2024/02/27 09:34:53;;;;;;;30.90;16.00;;;;;;;-2.57;69.09;141650.78;107041;1258;22527;-73
2024/02/27 09:37:39;;;;;;;34.70;13.90;;;;;;;-2.65;69.79;141632.91;107633;1259;22542;-69
2024/02/27 09:40:25;;;;;;;30.50;14.20;;;;;;;-2.70;69.95;141619.52;107360;1263;25382;-72
2024/02/27 09:43:21;;;;;;;33.80;14.00;;;;;;;-2.71;70.14;141618.03;107374;1263;25322;-72
2024/02/27 09:46:07;;;;;;;23.40;12.90;;;;;;;-2.69;69.70;141622.25;107011;1270;25334;-68
2024/02/27 09:48:57;;;;;;;31.30;13.60;;;;;;;-2.66;69.96;141629.19;107028;1266;25419;-68
2024/02/27 09:51:46;;;;;;;26.50;13.20;;;;;;;-2.71;69.08;141618.53;107071;1259;25806;-70
2024/02/27 09:54:33;;;;;;;31.60;12.80;;;;;;;-2.71;69.16;141618.28;107096;1260;25324;-67
2024/02/27 09:57:19;;;;;;;30.60;14.10;;;;;;;-2.66;69.20;141630.67;107238;1265;25360;-68
2024/02/27 10:00:06;;;;;;;25.90;13.20;;;;;;;-2.62;69.17;141639.09;107067;1264;25373;-72
2024/02/27 10:02:57;;;;;;;27.40;12.90;;;;;;;-2.58;68.80;141647.80;106929;1263;25335;-70
2024/02/27 10:05:43;;;;;;;32.70;14.50;;;;;;;-2.49;67.53;141671.86;107281;1260;25431;-75
2024/02/27 10:08:30;;;;;;;28.30;11.10;;;;;;;-2.35;66.79;141705.58;107215;1261;22516;-75
2024/02/27 10:11:18;;;;;;;26.70;11.40;;;;;;;-2.29;64.62;141719.72;106982;1277;25385;-71
2024/02/27 10:14:13;;;;;;;20.60;11.50;;;;;;;-2.26;64.75;141726.67;106963;1276;25297;-66
2024/02/27 10:17:03;;;;;;;23.60;11.20;;;;;;;-2.22;64.68;141735.59;106858;1263;25491;-65
2024/02/27 10:19:49;;;;;;;22.20;11.50;;;;;;;-2.15;62.77;141752.22;106973;1260;22537;-68
2024/02/27 10:22:35;;;;;;;22.40;10.50;;;;;;;-2.07;62.10;141771.33;107216;1264;23309;-71
2024/02/27 10:25:25;;;;;;;27.80;12.20;;;;;;;-2.01;61.41;141787.20;107059;1259;22591;-68
2024/02/27 10:28:11;;;;;;;21.00;10.10;;;;;;;-1.88;60.75;141817.72;107103;1263;25409;-71
2024/02/27 10:30:57;;;;;;;24.10;10.70;;;;;;;-1.74;60.70;141852.47;106935;1266;25405;-72
2024/02/27 10:33:43;;;;;;;20.60;9.40;;;;;;;-1.69;58.90;141864.41;107295;1273;25353;-73
2024/02/27 10:36:31;;;;;;;22.50;9.60;;;;;;;-1.69;57.94;141864.63;107103;1267;23780;-69
2024/02/27 10:39:16;;;;;;;17.90;7.60;;;;;;;-1.72;56.26;141857.70;107480;1263;25335;-71
2024/02/27 10:42:03;;;;;;;28.00;8.30;;;;;;;-1.68;56.01;141866.88;107137;1266;22943;-70
2024/02/27 10:44:49;;;;;;;17.50;9.20;;;;;;;-1.66;56.13;141872.08;107434;1267;25324;-71
2024/02/27 10:47:35;;;;;;;18.90;7.50;;;;;;;-1.57;55.54;141893.67;107644;1263;24265;-72
2024/02/27 10:50:22;;;;;;;21.30;9.10;;;;;;;-1.43;54.79;141926.95;107867;1254;25491;-69
2024/02/27 10:53:09;;;;;;;19.20;8.20;;;;;;;-1.42;53.65;141928.69;107045;1269;25401;-67
2024/02/27 10:55:56;;;;;;;17.70;7.20;;;;;;;-1.40;53.86;141935.66;107129;1266;22527;-75
2024/02/27 10:58:42;;;;;;;18.30;8.50;;;;;;;-1.31;53.30;141956.48;107353;1264;25335;-71
2024/02/27 11:01:29;;;;;;;18.00;8.20;;;;;;;-1.37;53.35;141942.36;107024;1266;22607;-79
2024/02/27 11:04:22;;;;;;;20.40;8.50;;;;;;;-1.45;53.77;141921.72;107021;1254;25322;-74
2024/02/27 11:07:07;;;;;;;;;;;;;;;-1.41;53.87;141931.41;107004;1263;25322;-77
2024/02/27 11:09:56;;;;;;;18.60;8.70;;;;;;;-1.26;53.69;141969.66;106892;1260;22541;-72
2024/02/27 11:12:48;;;;;;;24.90;8.80;;;;;;;-1.24;53.42;141973.11;107323;1261;25517;-73
2024/02/27 11:15:35;;;;;;;22.70;7.80;;;;;;;-1.21;53.32;141981.56;107219;1258;23878;-74
2024/02/27 11:18:25;;;;;;;23.10;8.50;;;;;;;-1.21;53.38;141981.56;107335;1266;24259;-76
2024/02/27 11:21:12;;;;;;;22.70;8.50;;;;;;;-1.18;53.64;141989.77;107642;1270;26092;-72
2024/02/27 11:23:59;;;;;;;34.30;10.20;;;;;;;-1.10;53.43;142008.38;107279;1270;25322;-68
2024/02/27 11:26:46;;;;;;;20.90;9.30;;;;;;;-1.11;53.62;142004.91;107013;1270;22541;-73
2024/02/27 11:29:32;;;;;;;27.50;9.40;;;;;;;-1.09;53.51;142009.63;107343;1260;22570;-75
2024/02/27 11:32:20;;;;;;;32.30;10.10;;;;;;;-1.04;53.87;142021.55;107057;1260;23415;-68
2024/02/27 11:35:09;;;;;;;18.30;7.40;;;;;;;-0.94;53.73;142047.63;107453;1261;26118;-70
2024/02/27 11:37:55;;;;;;;27.00;9.20;;;;;;;-0.96;54.00;142042.91;106849;1270;25331;-73
2024/02/27 11:40:50;;;;;;;21.80;8.30;;;;;;;-0.93;54.28;142049.09;107109;1254;22530;-69
2024/02/27 11:43:36;;;;;;;21.10;7.80;;;;;;;-0.92;53.83;142052.33;106949;1263;25325;-77
2024/02/27 11:46:27;;;;;;;19.40;8.10;;;;;;;-1.02;54.21;142026.00;106984;1271;22554;-72
2024/02/27 11:49:38;;;;;;;17.10;7.80;;;;;;;-0.94;54.23;142046.39;107189;1260;25430;-69
2024/02/27 11:52:24;;;;;;;19.20;8.10;;;;;;;-0.84;53.99;142069.98;107120;1261;26499;-71
2024/02/27 11:55:12;;;;;;;25.50;8.40;;;;;;;-0.80;53.68;142079.67;107163;1267;25334;-71
2024/02/27 11:58:01;;;;;;;21.00;8.20;;;;;;;-0.83;54.31;142072.72;107042;1277;23202;-70
2024/02/27 12:00:48;;;;;;;25.80;9.00;;;;;;;-0.82;54.68;142074.70;106962;1266;25431;-75
2024/02/27 12:03:34;;;;;;;24.10;8.40;;;;;;;-0.86;54.78;142066.00;107050;1259;25447;-66
2024/02/27 12:06:20;;;;;;;23.20;8.10;;;;;;;-0.75;54.78;142094.33;106645;1264;25566;-75
2024/02/27 12:09:07;;;;;;;24.40;8.10;;;;;;;-0.69;54.32;142109.22;106899;1261;25375;-75
2024/02/27 12:11:53;;;;;;;22.20;9.00;;;;;;;-0.81;54.47;142078.92;107252;1267;23392;-71
2024/02/27 12:14:39;;;;;;;19.00;8.50;;;;;;;-0.84;54.75;142070.23;107158;1270;25385;-71
2024/02/27 12:17:26;;;;;;;18.50;8.30;;;;;;;-0.83;54.38;142073.72;107205;1261;25462;-68
2024/02/27 12:20:13;;;;;;;19.20;8.60;;;;;;;-0.81;53.88;142077.42;106751;1261;25414;-69
2024/02/27 12:22:59;;;;;;;23.30;8.40;;;;;;;-0.77;54.30;142088.61;106962;1258;25375;-74
2024/02/27 12:25:45;;;;;;;17.90;8.50;;;;;;;-0.66;53.87;142113.72;107000;1260;23067;-70
2024/02/27 12:28:32;;;;;;;29.70;9.30;;;;;;;-0.59;53.89;142130.11;107076;1264;22547;-83